Time;durP1;ratioP1;P1;durP2;ratioP2;P2;SDS_P1;SDS_P2;PMS_P1;PMS_P2;Temp;Humidity;BMP_temperature;BMP_pressure;BME280_temperature;BME280_humidity;BME280_pressure;Samples;Min_cycle;Max_cycle;Signal;HPM_P1;HPM_P2
2022/12/01 00:01:15;;;;;;;116.63;57.38;;;6.00;99.90;;;;;;5017067;28;20346;-74
2022/12/01 00:03:41;;;;;;;131.25;61.45;;;6.00;99.90;;;;;;5017037;28;20040;-75
2022/12/01 00:06:17;;;;;;;123.55;59.08;;;6.00;99.90;;;;;;5017463;28;20140;-75
2022/12/01 00:10:24;;;;;;;126.40;58.55;;;6.00;99.90;;;;;;4999795;28;20053;-74
2022/12/01 00:11:31;;;;;;;128.00;58.85;;;6.00;99.90;;;;;;5016783;28;20128;-75
2022/12/01 00:13:57;;;;;;;118.85;58.20;;;6.00;99.90;;;;;;5017211;28;20334;-74
2022/12/01 00:16:23;;;;;;;124.70;59.47;;;6.00;99.90;;;;;;5016897;28;20052;-74
2022/12/01 00:18:50;;;;;;;121.30;58.90;;;6.00;99.90;;;;;;5002937;28;20081;-75
2022/12/01 00:21:20;;;;;;;119.63;60.40;;;6.00;99.90;;;;;;5036764;28;20037;-75
2022/12/01 00:23:48;;;;;;;116.88;58.90;;;6.00;99.90;;;;;;5018908;28;20046;-75
2022/12/01 00:26:14;;;;;;;116.75;59.17;;;6.00;99.90;;;;;;5035997;28;20073;-75
2022/12/01 00:28:40;;;;;;;112.97;56.70;;;6.20;99.90;;;;;;5035630;28;20041;-75
2022/12/01 00:31:10;;;;;;;110.97;56.92;;;6.00;99.90;;;;;;5035760;28;20454;-75
2022/12/01 00:33:35;;;;;;;114.55;57.72;;;6.00;99.90;;;;;;5036410;28;20476;-75
2022/12/01 00:36:02;;;;;;;118.35;59.95;;;6.00;99.90;;;;;;5036746;28;20041;-75
2022/12/01 00:38:28;;;;;;;119.05;58.20;;;6.00;99.90;;;;;;5036327;28;20095;-75
2022/12/01 00:40:53;;;;;;;120.50;58.90;;;6.00;99.90;;;;;;5002214;28;20381;-75
2022/12/01 00:43:19;;;;;;;114.00;60.33;;;6.00;99.90;;;;;;5035988;28;20049;-75
2022/12/01 00:45:45;;;;;;;110.38;57.80;;;6.00;99.90;;;;;;5036286;28;20049;-75
2022/12/01 00:48:10;;;;;;;115.10;57.30;;;6.30;99.90;;;;;;5016482;28;20477;-75
2022/12/01 00:50:38;;;;;;;110.38;58.08;;;6.00;99.90;;;;;;4998907;28;20050;-75
2022/12/01 00:53:04;;;;;;;114.68;58.28;;;6.00;99.90;;;;;;4999041;28;20047;-75
2022/12/01 00:55:29;;;;;;;114.50;57.72;;;6.00;99.90;;;;;;4998922;28;20429;-75
2022/12/01 00:57:55;;;;;;;115.90;58.35;;;6.00;99.90;;;;;;5016192;28;20109;-75
2022/12/01 01:00:21;;;;;;;111.40;56.78;;;6.00;99.90;;;;;;5016227;28;20117;-75
2022/12/01 01:02:49;;;;;;;112.68;58.70;;;6.00;99.90;;;;;;5015811;28;20042;-75
2022/12/01 01:05:15;;;;;;;110.97;56.20;;;6.00;99.90;;;;;;4999151;28;20072;-75
2022/12/01 01:07:40;;;;;;;115.35;57.88;;;6.00;99.90;;;;;;5016185;28;20034;-75
2022/12/01 01:10:06;;;;;;;116.00;58.13;;;6.00;99.90;;;;;;5016416;28;20041;-75
2022/12/01 01:12:32;;;;;;;117.80;58.95;;;6.00;99.90;;;;;;5016087;28;20469;-75
2022/12/01 01:14:57;;;;;;;116.10;57.60;;;6.00;99.90;;;;;;5015598;28;20045;-75
2022/12/01 01:17:26;;;;;;;122.78;65.60;;;6.00;99.90;;;;;;5015368;28;20049;-75
2022/12/01 01:19:52;;;;;;;191.63;128.82;;;5.90;99.90;;;;;;5015952;28;20118;-75
2022/12/01 01:22:17;;;;;;;127.20;78.65;;;5.90;99.90;;;;;;5015457;28;20125;-76
2022/12/01 01:24:43;;;;;;;123.72;68.03;;;5.90;99.90;;;;;;4997784;28;20100;-75
2022/12/01 01:27:08;;;;;;;122.22;63.67;;;6.00;99.90;;;;;;5015648;28;20042;-74
2022/12/01 01:29:35;;;;;;;119.13;61.95;;;5.90;99.90;;;;;;4982090;28;20080;-75
2022/12/01 01:32:01;;;;;;;119.05;62.42;;;6.00;99.90;;;;;;5015541;28;20133;-75
2022/12/01 01:34:26;;;;;;;113.15;60.03;;;6.30;99.90;;;;;;5020060;28;20062;-75
2022/12/01 01:36:52;;;;;;;113.20;60.35;;;5.90;99.90;;;;;;5034968;28;20095;-74
2022/12/01 01:39:17;;;;;;;113.65;60.28;;;5.90;99.90;;;;;;5035357;28;20125;-75
2022/12/01 01:41:43;;;;;;;110.03;59.42;;;5.90;99.90;;;;;;5035397;28;20413;-75
2022/12/01 01:44:48;;;;;;;113.20;59.00;;;5.90;99.90;;;;;;5035280;28;20400;-75
2022/12/01 01:47:19;;;;;;;119.43;61.88;;;5.90;99.90;;;;;;5024688;28;20038;-75
2022/12/01 01:49:48;;;;;;;108.75;59.25;;;5.90;99.90;;;;;;5015629;28;20042;-75
2022/12/01 01:52:14;;;;;;;117.22;59.25;;;5.90;99.90;;;;;;5035046;28;20050;-75
2022/12/01 01:54:43;;;;;;;124.03;66.38;;;5.90;99.90;;;;;;5035323;28;20073;-75
2022/12/01 01:57:11;;;;;;;110.95;61.60;;;5.90;99.90;;;;;;5035435;28;20037;-75
2022/12/01 01:59:41;;;;;;;120.72;63.72;;;5.90;99.90;;;;;;5035124;28;20045;-75
2022/12/01 02:02:09;;;;;;;112.55;62.13;;;5.90;99.90;;;;;;5023813;28;20046;-74
2022/12/01 02:04:39;;;;;;;120.43;64.07;;;5.90;99.90;;;;;;5034546;28;20107;-75
2022/12/01 02:07:09;;;;;;;121.07;62.25;;;5.90;99.90;;;;;;5034969;28;20100;-75
2022/12/01 02:09:35;;;;;;;113.35;61.25;;;5.90;99.90;;;;;;5035042;28;20045;-75
2022/12/01 02:12:20;;;;;;;115.68;62.63;;;5.90;99.90;;;;;;5018001;28;20138;-75
2022/12/01 02:14:48;;;;;;;116.35;62.22;;;5.90;99.90;;;;;;5034898;28;20041;-75
2022/12/01 02:17:37;;;;;;;111.68;60.38;;;5.90;99.90;;;;;;5013437;28;20442;-75
2022/12/01 02:20:24;;;;;;;114.13;60.88;;;5.90;99.90;;;;;;5021527;28;20145;-74
2022/12/01 02:23:15;;;;;;;117.75;62.05;;;5.90;99.90;;;;;;5034252;28;20059;-75
2022/12/01 02:25:50;;;;;;;111.47;60.88;;;5.90;99.90;;;;;;5034643;28;20042;-75
2022/12/01 02:28:32;;;;;;;117.78;63.15;;;5.90;99.90;;;;;;5034862;28;20042;-75
2022/12/01 02:31:07;;;;;;;117.32;60.47;;;5.90;99.90;;;;;;5020295;28;20042;-76
2022/12/01 02:33:41;;;;;;;118.10;63.17;;;5.90;99.90;;;;;;5014914;28;20038;-75
2022/12/01 02:36:14;;;;;;;;;;;5.90;99.90;;;;;;5034735;28;20468;-75
2022/12/01 02:38:57;;;;;;;115.22;62.08;;;5.90;99.90;;;;;;5017286;28;19987;-75
2022/12/01 02:41:52;;;;;;;119.35;62.35;;;5.90;99.90;;;;;;5034947;28;20081;-75
2022/12/01 02:44:48;;;;;;;116.30;61.90;;;5.90;99.90;;;;;;5032366;28;20045;-75
2022/12/01 02:47:15;;;;;;;122.28;59.58;;;5.80;99.90;;;;;;5009748;28;20053;-75
2022/12/01 02:49:51;;;;;;;125.68;62.13;;;5.90;99.90;;;;;;5014885;28;20041;-75
2022/12/01 02:52:23;;;;;;;119.20;62.35;;;5.90;99.90;;;;;;5017230;28;20054;-75
2022/12/01 02:54:49;;;;;;;123.38;61.83;;;6.40;99.90;;;;;;5018077;28;20042;-75
2022/12/01 02:57:15;;;;;;;124.85;64.07;;;5.90;99.90;;;;;;5018366;28;20077;-75
2022/12/01 02:59:47;;;;;;;121.65;64.35;;;5.80;99.90;;;;;;5017878;28;20048;-75
2022/12/01 03:02:23;;;;;;;129.45;65.72;;;5.80;99.90;;;;;;5018764;28;20042;-75
2022/12/01 03:05:00;;;;;;;122.50;65.18;;;5.90;99.90;;;;;;5017922;28;20105;-75
2022/12/01 03:07:42;;;;;;;120.82;64.18;;;5.90;99.90;;;;;;5018293;28;20092;-75
2022/12/01 03:10:26;;;;;;;128.25;65.05;;;5.90;99.90;;;;;;5017987;28;20042;-75
2022/12/01 03:12:57;;;;;;;137.77;67.70;;;5.80;99.90;;;;;;5018388;28;20042;-75
2022/12/01 03:16:07;;;;;;;127.47;66.70;;;5.90;99.90;;;;;;5038016;28;20044;-75
2022/12/01 03:18:42;;;;;;;126.03;64.32;;;5.90;99.90;;;;;;4922608;29;20404;-75
2022/12/01 03:21:20;;;;;;;134.27;65.85;;;5.80;99.90;;;;;;4938289;29;20046;-76
2022/12/01 03:24:00;;;;;;;127.72;65.78;;;5.90;99.90;;;;;;4997069;28;20358;-75
2022/12/01 03:26:29;;;;;;;133.10;65.88;;;5.90;99.90;;;;;;5020252;28;20116;-75
2022/12/01 03:29:15;;;;;;;134.43;68.70;;;5.90;99.90;;;;;;5037833;28;20354;-75
2022/12/01 03:31:52;;;;;;;129.70;65.35;;;5.90;99.90;;;;;;5025146;28;20112;-75
2022/12/01 03:34:34;;;;;;;129.20;64.85;;;5.90;99.90;;;;;;5017522;28;20176;-75
2022/12/01 03:37:06;;;;;;;137.02;66.22;;;5.90;99.90;;;;;;5018106;28;20080;-75
2022/12/01 03:39:34;;;;;;;138.93;66.53;;;5.80;99.90;;;;;;5017615;28;20048;-75
2022/12/01 03:42:27;;;;;;;139.18;67.95;;;5.80;99.90;;;;;;5000532;28;20041;-75
2022/12/01 03:44:56;;;;;;;139.18;66.90;;;5.80;99.90;;;;;;5017638;28;20034;-74
2022/12/01 03:47:28;;;;;;;133.02;66.97;;;5.80;99.90;;;;;;4980612;28;20046;-75
2022/12/01 03:49:55;;;;;;;135.50;69.18;;;6.50;99.90;;;;;;4980510;28;20072;-74
2022/12/01 03:52:40;;;;;;;138.27;66.55;;;5.80;99.90;;;;;;4998020;28;20105;-75
2022/12/01 03:55:24;;;;;;;138.73;68.20;;;5.80;99.90;;;;;;4997947;28;20470;-74
2022/12/01 03:57:55;;;;;;;;;;;5.80;99.90;;;;;;4998278;28;20074;-75
2022/12/01 04:00:22;;;;;;;134.30;64.95;;;5.80;99.90;;;;;;5005386;28;19917;-75
2022/12/01 04:02:54;;;;;;;137.15;68.60;;;5.80;99.90;;;;;;5035769;28;20041;-75
2022/12/01 04:05:26;;;;;;;145.77;70.63;;;5.80;99.90;;;;;;5037116;28;20052;-75
2022/12/01 04:07:52;;;;;;;136.32;67.25;;;6.10;99.90;;;;;;5037629;28;20383;-75
2022/12/01 04:10:17;;;;;;;137.98;67.88;;;6.10;99.90;;;;;;5037189;28;20033;-75
2022/12/01 04:12:43;;;;;;;143.07;68.80;;;5.80;99.90;;;;;;5036677;28;20045;-75
2022/12/01 04:15:11;;;;;;;140.15;68.85;;;5.80;99.90;;;;;;5030406;28;20042;-75
2022/12/01 04:17:38;;;;;;;139.25;67.68;;;5.80;99.90;;;;;;5016033;28;20374;-75
2022/12/01 04:20:05;;;;;;;132.63;65.75;;;5.80;99.90;;;;;;5017042;28;20054;-75
2022/12/01 04:22:32;;;;;;;146.45;67.78;;;5.80;99.90;;;;;;5016619;28;20358;-74
2022/12/01 04:24:57;;;;;;;143.13;69.88;;;5.80;99.90;;;;;;5016793;28;20073;-75
2022/12/01 04:27:23;;;;;;;145.82;69.43;;;5.80;99.90;;;;;;5036934;28;20041;-74
2022/12/01 04:29:49;;;;;;;144.93;67.22;;;5.80;99.90;;;;;;5031007;28;20464;-75
2022/12/01 04:32:15;;;;;;;136.52;64.93;;;5.80;99.90;;;;;;5036733;28;20064;-75
2022/12/01 04:34:40;;;;;;;142.20;71.20;;;5.80;99.90;;;;;;5036636;28;20115;-75
2022/12/01 04:37:07;;;;;;;142.90;68.93;;;5.80;99.90;;;;;;5036394;28;20453;-74
2022/12/01 04:39:33;;;;;;;153.65;68.55;;;5.80;99.90;;;;;;5036153;28;20469;-75
2022/12/01 04:41:59;;;;;;;157.23;70.88;;;5.80;99.90;;;;;;5036231;28;20136;-75
2022/12/01 04:44:27;;;;;;;154.80;70.45;;;5.80;99.90;;;;;;5031972;28;20093;-75
2022/12/01 04:46:53;;;;;;;148.25;70.75;;;5.80;99.90;;;;;;5016585;28;20057;-75
2022/12/01 04:49:20;;;;;;;141.57;67.78;;;5.80;99.90;;;;;;5017146;28;20041;-75
2022/12/01 04:51:46;;;;;;;147.40;68.90;;;6.00;99.90;;;;;;5001543;28;20046;-75
2022/12/01 04:54:15;;;;;;;141.35;68.57;;;5.80;99.90;;;;;;5036075;28;20064;-75
2022/12/01 04:56:42;;;;;;;151.30;69.28;;;5.80;99.90;;;;;;5018428;28;20446;-74
2022/12/01 04:59:08;;;;;;;150.52;71.07;;;5.80;99.90;;;;;;5036466;28;20128;-75
2022/12/01 05:01:34;;;;;;;147.60;68.35;;;5.80;99.90;;;;;;5020385;28;20117;-75
2022/12/01 05:03:59;;;;;;;147.27;69.63;;;5.80;99.90;;;;;;5016293;28;20037;-75
2022/12/01 05:06:27;;;;;;;148.18;69.35;;;5.80;99.90;;;;;;5036420;28;20397;-74
2022/12/01 05:08:55;;;;;;;151.70;67.85;;;5.80;99.90;;;;;;5035823;28;20045;-75
2022/12/01 05:11:20;;;;;;;156.07;71.68;;;5.80;99.90;;;;;;5018536;28;20081;-75
2022/12/01 05:13:48;;;;;;;143.82;66.57;;;5.80;99.90;;;;;;5017931;28;20107;-74
2022/12/01 05:16:28;;;;;;;135.48;64.28;;;6.80;99.90;;;;;;5016489;28;20048;-74
2022/12/01 05:21:42;;;;;;;143.95;67.53;;;5.80;99.90;;;;;;5015631;28;20046;-75
2022/12/01 05:24:09;;;;;;;148.73;66.75;;;5.80;99.90;;;;;;5015544;28;20477;-74
2022/12/01 05:26:35;;;;;;;146.25;66.57;;;5.80;99.90;;;;;;5035571;28;20049;-75
2022/12/01 05:29:01;;;;;;;146.98;69.32;;;6.00;99.90;;;;;;5025364;28;20404;-76
2022/12/01 05:31:26;;;;;;;153.82;67.60;;;5.80;99.90;;;;;;5015640;28;20081;-74
2022/12/01 05:33:52;;;;;;;148.48;65.97;;;5.80;99.90;;;;;;5015669;28;20446;-75
2022/12/01 05:36:17;;;;;;;145.35;67.72;;;5.80;99.90;;;;;;5015776;28;20045;-75
2022/12/01 05:38:43;;;;;;;142.52;67.40;;;5.80;99.90;;;;;;5015446;28;20053;-75
2022/12/01 05:41:09;;;;;;;140.73;67.97;;;5.80;99.90;;;;;;4998039;28;20402;-75
2022/12/01 05:43:35;;;;;;;147.85;66.72;;;5.80;99.90;;;;;;5015660;28;20053;-75
2022/12/01 05:46:01;;;;;;;139.77;65.15;;;5.80;99.90;;;;;;5015520;28;20462;-75
2022/12/01 05:48:27;;;;;;;146.38;66.22;;;5.80;99.90;;;;;;5015457;28;20048;-75
2022/12/01 05:50:52;;;;;;;149.55;65.57;;;5.80;99.90;;;;;;5015210;28;20030;-75
2022/12/01 05:53:18;;;;;;;149.00;68.50;;;5.80;99.90;;;;;;5015086;28;20041;-75
2022/12/01 05:55:44;;;;;;;150.82;68.18;;;5.70;99.90;;;;;;5015486;28;20374;-75
2022/12/01 05:58:10;;;;;;;141.65;64.00;;;5.70;99.90;;;;;;5015129;28;20478;-75
2022/12/01 06:00:36;;;;;;;150.45;64.53;;;6.00;99.90;;;;;;5015335;28;20070;-72
2022/12/01 06:03:02;;;;;;;146.07;65.22;;;5.70;99.90;;;;;;5027704;28;20339;-71
2022/12/01 06:05:28;;;;;;;149.10;68.25;;;5.70;99.90;;;;;;5035698;28;20042;-74
2022/12/01 06:07:54;;;;;;;157.25;67.35;;;5.70;99.90;;;;;;5034731;28;20410;-75
2022/12/01 06:10:19;;;;;;;150.90;68.07;;;5.70;99.90;;;;;;5035101;28;20045;-75
2022/12/01 06:12:45;;;;;;;144.63;67.03;;;5.70;99.90;;;;;;5035219;28;20076;-75
2022/12/01 06:15:11;;;;;;;144.77;66.45;;;5.70;99.90;;;;;;5035003;28;20486;-75
2022/12/01 06:17:37;;;;;;;150.85;66.18;;;5.70;99.90;;;;;;5034699;28;20050;-75
2022/12/01 06:20:04;;;;;;;151.30;66.35;;;5.70;99.90;;;;;;5034317;28;20056;-75
2022/12/01 06:22:30;;;;;;;146.48;65.65;;;5.70;99.90;;;;;;4998508;28;20108;-75
2022/12/01 06:24:55;;;;;;;149.70;66.60;;;5.70;99.90;;;;;;5015103;28;20037;-75
2022/12/01 06:27:21;;;;;;;149.90;64.57;;;5.70;99.90;;;;;;5018173;28;20042;-75
2022/12/01 06:29:49;;;;;;;148.30;66.25;;;5.70;99.90;;;;;;5019206;28;20037;-76
2022/12/01 06:32:19;;;;;;;146.13;66.75;;;5.70;99.90;;;;;;5019056;28;20044;-75
2022/12/01 06:34:44;;;;;;;143.50;66.00;;;5.70;99.90;;;;;;5018882;28;20044;-75
2022/12/01 06:37:10;;;;;;;138.13;62.88;;;5.70;99.90;;;;;;5018700;28;20116;-75
2022/12/01 06:39:36;;;;;;;137.82;64.80;;;5.70;99.90;;;;;;5018988;28;20350;-76
2022/12/01 06:42:02;;;;;;;146.18;67.05;;;5.70;99.90;;;;;;5001598;28;20060;-75
2022/12/01 06:44:28;;;;;;;141.68;65.28;;;5.70;99.90;;;;;;5018693;28;20116;-75
2022/12/01 06:46:57;;;;;;;145.93;65.68;;;5.70;99.90;;;;;;5001235;28;20046;-74
2022/12/01 06:49:22;;;;;;;140.88;66.00;;;5.70;99.90;;;;;;5018787;28;20037;-75
2022/12/01 06:51:48;;;;;;;146.60;69.07;;;5.70;99.90;;;;;;5018006;28;20470;-75
2022/12/01 06:54:15;;;;;;;141.63;66.10;;;6.10;99.90;;;;;;5020627;28;20049;-75
2022/12/01 06:56:42;;;;;;;143.02;66.43;;;5.70;99.90;;;;;;5037972;28;20064;-74
2022/12/01 06:59:07;;;;;;;148.05;64.57;;;5.70;99.90;;;;;;5020253;28;20057;-74
2022/12/01 07:01:33;;;;;;;147.60;66.68;;;5.70;99.90;;;;;;5038101;28;20042;-75
2022/12/01 07:03:59;;;;;;;154.77;67.70;;;5.70;99.90;;;;;;5038139;28;20037;-75
2022/12/01 07:06:31;;;;;;;141.30;65.72;;;5.70;99.90;;;;;;5038460;28;20052;-74
2022/12/01 07:08:56;;;;;;;144.60;63.95;;;5.70;99.90;;;;;;5019999;28;20053;-75
2022/12/01 07:11:22;;;;;;;160.45;68.63;;;5.70;99.90;;;;;;5038337;28;20049;-75
2022/12/01 07:13:50;;;;;;;153.65;68.05;;;5.70;99.90;;;;;;5031341;28;20038;-75
2022/12/01 07:16:16;;;;;;;145.57;66.88;;;6.40;99.90;;;;;;5037911;28;20041;-75
2022/12/01 07:18:44;;;;;;;144.50;65.90;;;5.70;99.90;;;;;;5020547;28;20033;-75
2022/12/01 07:21:12;;;;;;;143.82;65.80;;;5.70;99.90;;;;;;5037799;28;20041;-75
2022/12/01 07:23:37;;;;;;;134.13;64.93;;;5.70;99.90;;;;;;5037932;28;20041;-75
2022/12/01 07:26:12;;;;;;;145.93;67.65;;;5.70;99.90;;;;;;5037700;28;20052;-75
2022/12/01 07:28:38;;;;;;;147.35;67.18;;;5.60;99.90;;;;;;5037770;28;20436;-75
2022/12/01 07:31:07;;;;;;;150.57;67.43;;;5.60;99.90;;;;;;4988072;28;20072;-75
2022/12/01 07:33:33;;;;;;;143.77;64.80;;;5.60;99.90;;;;;;5022990;28;20048;-75
2022/12/01 07:35:59;;;;;;;135.40;64.40;;;5.60;99.90;;;;;;5037843;28;20076;-75
2022/12/01 07:38:31;;;;;;;137.98;65.07;;;5.60;99.90;;;;;;5037565;28;20485;-75
2022/12/01 07:41:11;;;;;;;125.03;61.13;;;6.00;99.90;;;;;;5037296;28;20391;-75
2022/12/01 07:43:38;;;;;;;132.38;63.55;;;5.60;99.90;;;;;;5021599;28;20042;-74
2022/12/01 07:46:15;;;;;;;141.27;65.07;;;5.60;99.90;;;;;;5017782;28;20052;-75
2022/12/01 07:48:40;;;;;;;131.00;62.05;;;5.50;99.90;;;;;;5017869;28;20363;-75
2022/12/01 07:51:09;;;;;;;143.98;63.88;;;5.50;99.90;;;;;;5017725;28;20137;-75
2022/12/01 07:53:35;;;;;;;139.07;64.68;;;5.70;99.90;;;;;;5037248;28;20045;-75
2022/12/01 07:56:01;;;;;;;141.02;63.08;;;5.30;99.90;;;;;;5037264;28;20092;-74
2022/12/01 07:58:27;;;;;;;132.10;60.35;;;5.30;99.90;;;;;;5020602;28;20525;-75
2022/12/01 08:00:53;;;;;;;148.55;66.38;;;5.20;99.90;;;;;;5017411;28;20038;-75
2022/12/01 08:03:19;;;;;;;138.00;62.45;;;5.10;99.90;;;;;;5017219;28;20100;-75
2022/12/01 08:05:45;;;;;;;147.18;65.05;;;5.50;99.90;;;;;;5017126;28;20042;-75
2022/12/01 08:08:10;;;;;;;138.32;60.30;;;5.10;99.90;;;;;;5017151;28;20467;-75
2022/12/01 08:10:36;;;;;;;153.82;65.82;;;5.00;99.90;;;;;;4966944;28;20497;-75
2022/12/01 08:13:02;;;;;;;133.77;61.00;;;5.00;99.90;;;;;;5013924;28;20121;-74
2022/12/01 08:15:28;;;;;;;146.98;63.92;;;5.00;99.90;;;;;;5036940;28;20037;-74
2022/12/01 08:17:53;;;;;;;148.63;65.10;;;5.00;99.90;;;;;;5036884;28;20115;-75
2022/12/01 08:20:20;;;;;;;153.50;66.50;;;5.00;99.90;;;;;;5036516;28;20421;-74
2022/12/01 08:22:46;;;;;;;160.30;66.88;;;5.00;99.90;;;;;;5036385;28;20057;-75
2022/12/01 08:25:11;;;;;;;143.68;63.10;;;5.00;99.90;;;;;;5019684;28;20049;-74
2022/12/01 08:27:37;;;;;;;165.60;66.20;;;5.00;99.90;;;;;;5023007;28;20052;-75
2022/12/01 08:30:04;;;;;;;176.90;66.75;;;5.10;99.90;;;;;;5017203;28;20041;-75
2022/12/01 08:32:29;;;;;;;153.48;63.72;;;5.10;99.90;;;;;;5016755;28;20048;-75
2022/12/01 08:34:58;;;;;;;156.55;67.45;;;5.10;99.90;;;;;;5015954;28;20041;-75
2022/12/01 08:37:23;;;;;;;170.55;68.05;;;5.10;99.90;;;;;;5016640;28;20390;-75
2022/12/01 08:39:49;;;;;;;173.18;73.32;;;5.10;99.90;;;;;;5016522;28;20053;-74
2022/12/01 08:42:15;;;;;;;148.40;67.32;;;5.10;99.90;;;;;;5006364;28;20054;-75
2022/12/01 08:44:40;;;;;;;149.57;66.57;;;5.20;99.90;;;;;;4983184;28;20195;-74
2022/12/01 08:47:06;;;;;;;169.25;70.90;;;5.30;99.90;;;;;;5016476;28;20104;-75
2022/12/01 08:49:31;;;;;;;154.02;68.82;;;5.30;99.90;;;;;;5015764;28;20075;-75
2022/12/01 08:51:57;;;;;;;152.10;68.95;;;5.30;99.90;;;;;;5016628;28;20116;-74
2022/12/01 08:54:22;;;;;;;136.73;63.45;;;5.40;99.90;;;;;;5016349;28;20097;-75
2022/12/01 08:56:48;;;;;;;143.13;64.95;;;5.40;99.90;;;;;;5015722;28;20037;-74
2022/12/01 08:59:14;;;;;;;150.48;64.78;;;5.50;99.90;;;;;;5015090;28;20410;-75
2022/12/01 09:01:51;;;;;;;144.20;65.65;;;5.40;99.90;;;;;;5015759;28;20493;-75
2022/12/01 09:04:22;;;;;;;129.68;62.63;;;5.40;99.90;;;;;;5035578;28;20449;-74
2022/12/01 09:06:49;;;;;;;138.30;64.35;;;5.40;99.90;;;;;;5035764;28;20450;-74
2022/12/01 09:09:18;;;;;;;142.27;64.97;;;5.40;99.90;;;;;;5001889;28;20131;-74
2022/12/01 09:11:44;;;;;;;134.60;61.53;;;5.40;99.90;;;;;;5035927;28;20045;-74
2022/12/01 09:14:12;;;;;;;138.20;62.47;;;5.40;99.90;;;;;;5034574;28;20045;-75
2022/12/01 09:16:37;;;;;;;126.03;60.58;;;5.40;99.90;;;;;;4998036;28;20450;-75
2022/12/01 09:19:03;;;;;;;135.25;60.28;;;5.30;99.90;;;;;;5015669;28;20108;-74
2022/12/01 09:21:31;;;;;;;138.45;64.05;;;5.20;99.90;;;;;;5015944;28;20124;-74
2022/12/01 09:23:57;;;;;;;146.80;66.50;;;5.10;99.90;;;;;;5016188;28;20137;-74
2022/12/01 09:26:26;;;;;;;137.90;64.28;;;5.30;99.90;;;;;;5015680;28;20438;-74
2022/12/01 09:28:57;;;;;;;141.00;63.50;;;5.30;99.90;;;;;;5015436;28;20468;-76
2022/12/01 09:31:25;;;;;;;149.77;63.55;;;5.00;99.90;;;;;;5015780;28;20424;-75
2022/12/01 09:34:00;;;;;;;121.10;59.92;;;4.90;99.90;;;;;;5001438;28;20362;-75
2022/12/01 09:36:27;;;;;;;157.38;66.82;;;5.40;99.90;;;;;;5035387;28;20037;-75
2022/12/01 09:38:52;;;;;;;138.48;64.13;;;4.90;99.90;;;;;;5035343;28;20033;-75
2022/12/01 09:41:20;;;;;;;139.48;63.15;;;4.90;99.90;;;;;;5018012;28;20056;-75
2022/12/01 09:43:54;;;;;;;120.78;60.95;;;4.90;99.90;;;;;;5032938;28;20049;-75
2022/12/01 09:46:27;;;;;;;132.43;61.83;;;4.90;99.90;;;;;;5034982;28;20045;-74
2022/12/01 09:48:58;;;;;;;145.68;65.13;;;4.90;99.90;;;;;;5018432;28;20374;-75
2022/12/01 09:51:26;;;;;;;133.73;62.05;;;4.90;99.90;;;;;;5034932;28;20115;-75
2022/12/01 09:53:56;;;;;;;123.88;60.55;;;4.90;99.90;;;;;;5035092;28;20048;-74
2022/12/01 09:56:29;;;;;;;139.77;65.43;;;5.00;99.90;;;;;;5017650;28;20029;-75
2022/12/01 09:59:01;;;;;;;137.27;65.82;;;5.10;99.90;;;;;;5029900;28;20046;-75
2022/12/01 10:01:48;;;;;;;139.05;66.10;;;5.20;99.90;;;;;;5014214;28;20045;-74
2022/12/01 10:04:25;;;;;;;136.82;63.97;;;5.30;99.90;;;;;;5015253;28;20121;-74
2022/12/01 10:06:59;;;;;;;119.30;61.15;;;5.50;99.90;;;;;;5034864;28;20193;-75
2022/12/01 10:09:42;;;;;;;130.45;59.90;;;5.60;99.90;;;;;;5034769;28;20151;-74
2022/12/01 10:12:17;;;;;;;115.63;60.45;;;5.70;99.90;;;;;;5034947;28;20080;-75
2022/12/01 10:14:50;;;;;;;113.20;58.03;;;6.30;99.90;;;;;;5019981;28;20097;-75
2022/12/01 10:17:56;;;;;;;116.47;57.20;;;5.90;99.90;;;;;;5014894;28;20048;-75
2022/12/01 10:20:22;;;;;;;112.90;58.53;;;5.90;99.90;;;;;;5015025;28;20285;-75
2022/12/01 10:23:13;;;;;;;113.35;56.50;;;6.00;99.90;;;;;;5015000;28;20422;-76
2022/12/01 10:26:08;;;;;;;100.22;52.85;;;6.10;99.90;;;;;;5014899;28;20105;-75
2022/12/01 10:29:31;;;;;;;108.20;56.30;;;6.10;99.90;;;;;;5004265;28;20519;-75
2022/12/01 10:32:14;;;;;;;104.28;54.40;;;6.10;99.90;;;;;;4900641;29;20091;-75
2022/12/01 10:34:41;;;;;;;112.07;55.80;;;6.10;99.90;;;;;;4916530;29;20044;-74
2022/12/01 10:37:24;;;;;;;101.50;55.17;;;6.40;99.90;;;;;;4979092;28;20306;-75
2022/12/01 10:39:52;;;;;;;103.00;52.88;;;6.10;99.90;;;;;;5034601;28;20033;-75
2022/12/01 10:42:35;;;;;;;109.15;54.17;;;6.00;99.90;;;;;;5034085;28;20042;-75
2022/12/01 10:45:04;;;;;;;99.07;52.28;;;6.00;99.90;;;;;;4988040;28;20328;-75
2022/12/01 10:47:30;;;;;;;103.90;55.35;;;6.10;99.90;;;;;;4994491;28;20419;-75
2022/12/01 10:49:56;;;;;;;104.15;54.53;;;6.00;99.90;;;;;;4977922;28;20038;-74
2022/12/01 10:52:40;;;;;;;105.18;54.08;;;6.00;99.90;;;;;;4995477;28;20406;-74
2022/12/01 10:55:29;;;;;;;98.90;52.65;;;6.00;99.90;;;;;;4995141;28;20042;-75
2022/12/01 10:57:59;;;;;;;97.40;52.47;;;6.00;99.90;;;;;;4988726;28;20521;-75
2022/12/01 11:00:31;;;;;;;99.07;52.85;;;6.00;99.90;;;;;;5034208;28;20065;-75
2022/12/01 11:02:56;;;;;;;98.97;52.65;;;6.00;99.90;;;;;;5034117;28;20424;-74
2022/12/01 11:05:29;;;;;;;96.57;52.90;;;6.00;99.90;;;;;;5016993;28;20116;-74
2022/12/01 11:07:55;;;;;;;97.57;50.55;;;5.90;99.90;;;;;;5034428;28;20076;-74
2022/12/01 11:10:24;;;;;;;98.32;51.45;;;5.90;99.90;;;;;;5017494;28;20442;-74
2022/12/01 11:13:04;;;;;;;92.55;50.03;;;5.90;99.90;;;;;;5035977;28;20120;-74
2022/12/01 11:15:36;;;;;;;88.88;50.05;;;5.90;99.90;;;;;;5038355;28;20345;-75
2022/12/01 11:18:04;;;;;;;94.47;49.90;;;6.00;99.90;;;;;;5037954;28;20424;-75
2022/12/01 11:20:36;;;;;;;93.20;51.10;;;6.00;99.90;;;;;;5037809;28;20045;-74
2022/12/01 11:23:19;;;;;;;87.22;49.72;;;6.00;99.90;;;;;;5037705;28;20054;-75
2022/12/01 11:26:19;;;;;;;94.63;49.65;;;6.10;99.90;;;;;;5037546;28;20084;-75
2022/12/01 11:28:58;;;;;;;95.45;48.53;;;6.10;99.90;;;;;;5019168;28;20056;-75
2022/12/01 11:31:45;;;;;;;88.95;48.22;;;6.10;99.90;;;;;;5018052;28;20109;-75
2022/12/01 11:34:29;;;;;;;82.95;48.15;;;6.10;99.90;;;;;;5017768;28;20046;-74
2022/12/01 11:36:59;;;;;;;83.70;46.42;;;6.20;99.90;;;;;;5017722;28;20046;-75
2022/12/01 11:39:40;;;;;;;86.07;47.58;;;6.20;99.90;;;;;;5017870;28;20077;-75
2022/12/01 11:42:27;;;;;;;85.95;47.90;;;6.30;99.90;;;;;;5017452;28;20060;-75
2022/12/01 11:45:18;;;;;;;79.85;45.88;;;6.30;99.90;;;;;;5037241;28;20438;-75
2022/12/01 11:48:19;;;;;;;83.22;45.90;;;6.30;99.90;;;;;;5037138;28;20454;-75
2022/12/01 11:51:00;;;;;;;79.97;46.47;;;6.40;99.90;;;;;;4977129;28;20374;-75
2022/12/01 11:53:35;;;;;;;79.07;45.67;;;6.50;99.90;;;;;;5037291;28;20037;-74
2022/12/01 11:56:22;;;;;;;76.35;45.20;;;6.60;99.90;;;;;;5019976;28;20064;-74
2022/12/01 11:58:52;;;;;;;78.80;44.30;;;6.60;99.90;;;;;;5037594;28;20056;-75
2022/12/01 12:01:56;;;;;;;76.50;45.92;;;6.60;99.90;;;;;;5036981;28;20092;-75
2022/12/01 12:04:31;;;;;;;72.47;43.60;;;6.60;99.90;;;;;;5019635;28;20478;-75
2022/12/01 12:07:15;;;;;;;67.63;43.35;;;6.60;99.90;;;;;;4997776;28;20043;-74
2022/12/01 12:10:02;;;;;;;73.97;43.72;;;6.60;99.90;;;;;;4997645;28;20058;-75
2022/12/01 12:12:49;;;;;;;74.97;42.97;;;6.70;99.90;;;;;;5001843;28;20038;-75
2022/12/01 12:15:46;;;;;;;73.07;43.67;;;6.70;99.90;;;;;;4999815;28;20442;-75
2022/12/01 12:18:45;;;;;;;71.35;42.42;;;6.70;99.90;;;;;;5017466;28;20034;-74
2022/12/01 12:21:42;;;;;;;63.35;39.80;;;6.70;99.90;;;;;;5016873;28;20422;-75
2022/12/01 12:24:25;;;;;;;65.65;41.30;;;6.70;99.90;;;;;;4930991;28;20062;-74
2022/12/01 12:27:00;;;;;;;62.55;41.03;;;6.90;99.90;;;;;;5016565;28;20107;-75
2022/12/01 12:29:28;;;;;;;64.95;39.95;;;6.80;99.90;;;;;;5036438;28;20545;-75
2022/12/01 12:32:17;;;;;;;64.45;41.88;;;6.80;99.90;;;;;;5036772;28;20450;-75
2022/12/01 12:35:03;;;;;;;65.07;41.72;;;6.80;99.90;;;;;;5036188;28;20450;-74
2022/12/01 12:37:50;;;;;;;63.60;41.03;;;6.80;99.90;;;;;;5036479;28;20132;-75
2022/12/01 12:40:56;;;;;;;65.85;40.55;;;6.80;99.90;;;;;;5036395;28;20041;-75
2022/12/01 12:43:53;;;;;;;63.92;40.58;;;6.80;99.90;;;;;;5001743;28;20052;-74
2022/12/01 12:46:44;;;;;;;55.72;37.60;;;6.80;99.90;;;;;;5036592;28;20111;-75
2022/12/01 12:49:28;;;;;;;60.53;39.45;;;6.80;99.90;;;;;;5018683;28;20041;-75
2022/12/01 12:52:35;;;;;;;58.80;39.55;;;6.80;99.90;;;;;;5036170;28;20120;-75
2022/12/01 12:55:13;;;;;;;58.50;38.90;;;6.80;99.90;;;;;;4905325;29;20044;-75